Time;durP1;ratioP1;P1;durP2;ratioP2;P2;SDS_P1;SDS_P2;PMS_P1;PMS_P2;Temp;Humidity;BMP_temperature;BMP_pressure;BME280_temperature;BME280_humidity;BME280_pressure;Samples;Min_cycle;Max_cycle;Signal;HPM_P1;HPM_P2
2023/07/02 00:01:48;;;;;;;6.68;2.40;;;;;;;;;;5085461;28;20215;-46
2023/07/02 00:04:19;;;;;;;5.55;2.33;;;;;;;;;;5085728;28;20035;-50
2023/07/02 00:06:50;;;;;;;4.07;2.45;;;;;;;;;;5085363;28;20032;-56
2023/07/02 00:09:16;;;;;;;6.30;1.90;;;;;;;;;;5085336;28;20056;-53
2023/07/02 00:11:45;;;;;;;4.72;1.88;;;;;;;;;;5085083;28;20100;-49
2023/07/02 00:14:13;;;;;;;5.97;2.30;;;;;;;;;;5085634;28;20052;-51
2023/07/02 00:16:42;;;;;;;4.90;2.67;;;;;;;;;;5084872;28;20224;-47
2023/07/02 00:19:09;;;;;;;5.07;3.30;;;;;;;;;;5085456;28;20086;-51
2023/07/02 00:21:37;;;;;;;7.82;3.60;;;;;;;;;;5085176;28;20088;-51
2023/07/02 00:24:04;;;;;;;6.03;3.35;;;;;;;;;;5085304;28;20217;-49
2023/07/02 00:26:30;;;;;;;4.35;3.10;;;;;;;;;;5084800;28;20070;-53
2023/07/02 00:28:57;;;;;;;7.70;3.00;;;;;;;;;;5085230;28;20020;-51
2023/07/02 00:31:24;;;;;;;7.10;2.83;;;;;;;;;;5084785;28;20024;-56
2023/07/02 00:33:51;;;;;;;9.27;3.17;;;;;;;;;;5084855;28;20040;-53
2023/07/02 00:36:18;;;;;;;4.70;2.53;;;;;;;;;;5084472;28;20041;-49
2023/07/02 00:38:49;;;;;;;7.03;2.70;;;;;;;;;;5084789;28;20052;-47
2023/07/02 00:41:16;;;;;;;3.72;1.80;;;;;;;;;;5084230;28;20101;-49
2023/07/02 00:43:45;;;;;;;4.13;2.03;;;;;;;;;;5084927;28;20021;-52
2023/07/02 00:46:17;;;;;;;5.50;1.92;;;29.70;99.90;;;;;;5084437;28;20028;-45
2023/07/02 00:48:49;;;;;;;4.47;1.75;;;;;;;;;;5090237;28;20096;-55
2023/07/02 00:51:16;;;;;;;3.88;1.45;;;;;;;;;;5093531;28;20087;-55
2023/07/02 00:53:42;;;;;;;3.97;1.50;;;;;;;;;;5096513;28;20092;-49
2023/07/02 00:56:09;;;;;;;5.28;1.80;;;;;;;;;;5096591;28;20032;-52
2023/07/02 01:01:11;;;;;;;4.63;1.73;;;;;;;;;;5382982;22;20052;-49
2023/07/02 01:03:38;;;;;;;4.20;1.45;;;;;;;;;;5064271;28;20377;-49
2023/07/02 01:06:05;;;;;;;3.63;1.73;;;;;;;;;;5064335;28;20032;-49
2023/07/02 01:08:32;;;;;;;7.13;2.10;;;;;;;;;;5064273;28;20119;-46
2023/07/02 01:10:59;;;;;;;3.50;2.30;;;;;;;;;;5064702;28;20039;-50
2023/07/02 01:13:26;;;;;;;3.15;2.03;;;;;;;;;;5063975;28;20016;-48
2023/07/02 01:15:53;;;;;;;4.20;2.92;;;;;;;;;;5064653;28;20238;-49
2023/07/02 01:18:20;;;;;;;4.10;1.80;;;;;;;;;;5064151;28;20024;-48
2023/07/02 01:20:47;;;;;;;5.40;1.92;;;;;;;;;;5064272;28;20052;-48
2023/07/02 01:23:13;;;;;;;4.95;2.30;;;;;;;;;;5064133;28;20020;-49
2023/07/02 01:25:40;;;;;;;7.20;3.75;;;;;;;;;;5064143;28;20037;-44
2023/07/02 01:28:06;;;;;;;9.15;3.58;;;;;;;;;;5064315;28;20028;-49
2023/07/02 01:30:34;;;;;;;47.60;7.18;;;;;;;;;;5055172;28;20340;-47
2023/07/02 01:33:01;;;;;;;49.45;8.82;;;;;;;;;;5049270;28;20096;-49
2023/07/02 01:35:27;;;;;;;51.40;8.30;;;;;;;;;;5044993;28;20064;-53
2023/07/02 01:37:54;;;;;;;56.83;7.75;;;;;;;;;;5054304;28;20094;-45
2023/07/02 01:40:21;;;;;;;42.75;7.38;;;;;;;;;;5044021;28;20034;-46
2023/07/02 01:42:47;;;;;;;42.67;6.53;;;;;;;;;;5043634;28;20036;-48
2023/07/02 01:45:14;;;;;;;39.50;6.38;;;;;;;;;;5043914;28;20038;-47
2023/07/02 01:47:40;;;;;;;23.85;5.15;;;;;;;;;;5043703;28;20068;-46
2023/07/02 01:50:07;;;;;;;17.08;4.10;;;29.60;99.90;;;;;;5043964;28;20029;-46
2023/07/02 01:52:34;;;;;;;21.67;4.10;;;;;;;;;;5047907;28;20027;-53
2023/07/02 01:55:01;;;;;;;14.82;3.22;;;;;;;;;;5068278;28;20307;-46
2023/07/02 01:57:30;;;;;;;12.68;3.15;;;;;;;;;;5075945;28;20021;-51
2023/07/02 01:59:57;;;;;;;11.73;2.67;;;;;;;;;;5083487;28;20115;-46
2023/07/02 02:02:23;;;;;;;6.50;1.90;;;;;;;;;;5083712;28;20338;-46
2023/07/02 02:04:50;;;;;;;8.57;2.00;;;;;;;;;;5064234;28;20288;-44
2023/07/02 02:07:18;;;;;;;5.82;1.50;;;29.40;99.90;;;;;;5058617;28;20044;-44
2023/07/02 02:09:44;;;;;;;5.55;1.60;;;29.30;99.90;;;;;;5063289;28;20036;-47
2023/07/02 02:12:11;;;;;;;5.40;1.40;;;29.30;99.90;;;;;;5063414;28;20017;-42
2023/07/02 02:14:37;;;;;;;10.18;2.20;;;;;;;;;;5063389;28;20028;-45
2023/07/02 02:17:04;;;;;;;10.80;1.40;;;;;;;;;;5063508;28;20316;-44
2023/07/02 02:19:30;;;;;;;4.95;1.02;;;;;;;;;;5063504;28;20094;-47
2023/07/02 02:21:57;;;;;;;7.70;1.00;;;;;;;;;;5063346;28;20035;-46
2023/07/02 02:24:24;;;;;;;7.18;1.00;;;;;;;;;;5062990;28;20028;-46
2023/07/02 02:26:50;;;;;;;3.85;1.00;;;;;;;;;;5063320;28;20190;-52
2023/07/02 02:29:17;;;;;;;5.10;0.80;;;;;;;;;;5063237;28;20071;-45
2023/07/02 02:31:44;;;;;;;3.08;0.70;;;;;;;;;;5063241;28;20029;-45
2023/07/02 02:34:10;;;;;;;1.20;0.50;;;;;;;;;;5063326;28;20127;-50
2023/07/02 02:36:37;;;;;;;1.58;0.50;;;;;;;;;;5061489;28;20033;-49
2023/07/02 02:39:04;;;;;;;4.78;0.75;;;;;;;;;;5054621;28;20041;-50
2023/07/02 02:41:31;;;;;;;7.88;0.70;;;;;;;;;;5066556;28;20206;-47
2023/07/02 02:43:58;;;;;;;3.78;0.70;;;;;;;;;;5066723;28;20225;-50
2023/07/02 02:46:25;;;;;;;1.42;0.70;;;;;;;;;;5067442;28;20082;-49
2023/07/02 02:48:52;;;;;;;3.38;0.55;;;;;;;;;;5068298;28;20021;-39
2023/07/02 02:51:19;;;;;;;6.57;1.00;;;;;;;;;;5065161;28;20071;-46
2023/07/02 02:53:46;;;;;;;2.33;0.60;;;;;;;;;;5066766;28;20021;-44
2023/07/02 02:56:12;;;;;;;2.28;0.63;;;;;;;;;;5067257;28;20035;-45
2023/07/02 02:58:40;;;;;;;4.18;0.60;;;;;;;;;;5066320;28;20424;-50
2023/07/02 03:01:10;;;;;;;3.35;0.60;;;;;;;;;;5065385;28;20049;-43
2023/07/02 03:03:39;;;;;;;3.00;0.50;;;;;;;;;;5065810;28;20021;-45
2023/07/02 03:06:06;;;;;;;4.70;0.60;;;;;;;;;;5066809;28;20029;-45
2023/07/02 03:08:33;;;;;;;6.45;0.68;;;;;;;;;;5066484;28;20033;-43
2023/07/02 03:10:59;;;;;;;7.65;0.80;;;;;;;;;;5066532;28;20017;-43
2023/07/02 03:13:28;;;;;;;5.88;0.63;;;;;;;;;;5066598;28;20265;-46
2023/07/02 03:15:55;;;;;;;5.65;0.70;;;;;;;;;;5066827;28;20092;-44
2023/07/02 03:18:21;;;;;;;4.60;0.77;;;;;;;;;;5066406;28;20025;-46
2023/07/02 03:20:48;;;;;;;6.78;0.60;;;;;;;;;;5066541;28;20032;-48
2023/07/02 03:23:14;;;;;;;3.08;0.68;;;;;;;;;;5066309;28;20240;-45
2023/07/02 03:25:41;;;;;;;3.05;0.47;;;;;;;;;;5066414;28;20052;-46
2023/07/02 03:28:07;;;;;;;5.30;0.60;;;;;;;;;;5066005;28;20058;-48
2023/07/02 03:30:34;;;;;;;5.47;0.60;;;;;;;;;;5066404;28;20029;-48
2023/07/02 03:33:01;;;;;;;3.70;0.50;;;;;;;;;;5065989;28;20040;-49
2023/07/02 03:35:27;;;;;;;7.28;0.70;;;;;;;;;;5066233;28;20021;-47
2023/07/02 03:37:54;;;;;;;4.53;0.50;;;;;;;;;;5065967;28;20025;-45
2023/07/02 03:40:20;;;;;;;3.78;0.60;;;;;;;;;;5066448;28;20031;-44
2023/07/02 03:42:47;;;;;;;3.88;0.98;;;;;;;;;;5065861;28;20044;-49
2023/07/02 03:45:14;;;;;;;2.75;0.47;;;;;;;;;;5066018;28;20041;-44
2023/07/02 03:47:40;;;;;;;6.03;0.77;;;;;;;;;;5065805;28;20020;-49
2023/07/02 03:50:07;;;;;;;4.35;0.60;;;;;;;;;;5065118;28;20021;-43
2023/07/02 03:52:34;;;;;;;5.05;0.60;;;;;;;;;;5065772;28;20051;-45
2023/07/02 03:55:00;;;;;;;2.30;0.60;;;;;;;;;;5065821;28;20084;-48
2023/07/02 03:57:28;;;;;;;5.18;0.50;;;;;;;;;;5065759;28;20040;-42
2023/07/02 03:59:55;;;;;;;6.20;0.90;;;;;;;;;;5065271;28;20360;-43
2023/07/02 04:02:21;;;;;;;2.97;0.73;;;;;;;;;;5065534;28;20028;-42
2023/07/02 04:04:48;;;;;;;2.92;0.70;;;;;;;;;;5065555;28;20029;-46
2023/07/02 04:07:15;;;;;;;2.58;0.75;;;;;;;;;;5065266;28;20028;-43
2023/07/02 04:09:42;;;;;;;2.90;0.70;;;;;;;;;;5065248;28;20028;-53
2023/07/02 04:12:09;;;;;;;5.68;1.10;;;;;;;;;;5065437;28;20040;-50
2023/07/02 04:14:36;;;;;;;5.35;1.17;;;;;;;;;;5065049;28;20240;-54
2023/07/02 04:17:05;;;;;;;3.65;0.80;;;;;;;;;;5065470;28;20028;-48
2023/07/02 04:19:32;;;;;;;4.65;1.08;;;;;;;;;;5065298;28;20052;-49
2023/07/02 04:21:59;;;;;;;3.53;0.70;;;;;;;;;;5064963;28;20113;-48
2023/07/02 04:24:26;;;;;;;2.85;0.70;;;;;;;;;;5065086;28;20325;-45
2023/07/02 04:26:53;;;;;;;4.40;0.90;;;;;;;;;;5065037;28;20028;-44
2023/07/02 04:29:20;;;;;;;4.80;1.08;;;;;;;;;;5064774;28;20056;-49
2023/07/02 04:31:47;;;;;;;4.00;0.90;;;;;;;;;;5064800;28;20241;-45
2023/07/02 04:34:14;;;;;;;7.70;0.93;;;;;;;;;;5064662;28;20024;-46
2023/07/02 04:36:40;;;;;;;4.85;1.13;;;;;;;;;;5064638;28;20335;-45
2023/07/02 04:39:09;;;;;;;3.50;0.93;;;;;;;;;;5064815;28;20021;-42
2023/07/02 04:41:36;;;;;;;6.07;0.82;;;;;;;;;;5064687;28;20017;-47
2023/07/02 04:44:03;;;;;;;5.13;0.80;;;;;;;;;;5064511;28;20028;-44
2023/07/02 04:46:29;;;;;;;5.70;1.02;;;;;;;;;;5065173;28;20027;-46
2023/07/02 04:48:56;;;;;;;4.30;0.73;;;;;;;;;;5064755;28;20021;-47
2023/07/02 04:51:23;;;;;;;5.22;0.70;;;;;;;;;;5064938;28;20033;-44
2023/07/02 04:53:49;;;;;;;5.25;0.90;;;;;;;;;;5064630;28;20036;-42
2023/07/02 04:56:16;;;;;;;3.63;0.80;;;;;;;;;;5065069;28;20020;-43
2023/07/02 04:58:42;;;;;;;5.32;1.10;;;;;;;;;;5064234;28;20029;-43
2023/07/02 05:01:09;;;;;;;3.58;0.80;;;;;;;;;;5064209;28;20041;-45
2023/07/02 05:03:38;;;;;;;5.47;0.90;;;;;;;;;;5063605;28;20035;-46
2023/07/02 05:06:05;;;;;;;4.20;0.77;;;;;;;;;;5064438;28;20194;-53
2023/07/02 05:08:31;;;;;;;3.45;0.80;;;;;;;;;;5064324;28;20013;-44
2023/07/02 05:10:58;;;;;;;3.50;0.60;;;;;;;;;;5064764;28;20041;-49
2023/07/02 05:13:25;;;;;;;6.93;0.82;;;;;;;;;;5064066;28;20339;-47
2023/07/02 05:15:51;;;;;;;11.50;1.10;;;;;;;;;;5064507;28;20071;-47
2023/07/02 05:18:18;;;;;;;4.35;0.73;;;;;;;;;;5064265;28;20027;-46
2023/07/02 05:20:44;;;;;;;2.10;0.60;;;;;;;;;;5064261;28;20025;-49
2023/07/02 05:23:11;;;;;;;5.38;1.10;;;;;;;;;;5064126;28;20067;-44
2023/07/02 05:25:38;;;;;;;10.52;1.05;;;;;;;;;;5064339;28;20032;-45
2023/07/02 05:28:05;;;;;;;7.43;1.00;;;;;;;;;;5064100;28;20036;-47
2023/07/02 05:30:31;;;;;;;6.05;0.98;;;;;;;;;;5063906;28;20037;-47
2023/07/02 05:32:58;;;;;;;4.60;0.77;;;;;;;;;;5063909;28;20083;-47
2023/07/02 05:35:24;;;;;;;6.00;1.02;;;;;;;;;;5063819;28;20024;-46
2023/07/02 05:37:51;;;;;;;3.22;0.70;;;;;;;;;;5064138;28;20040;-46
2023/07/02 05:40:18;;;;;;;2.92;0.80;;;;;;;;;;5064138;28;20049;-43
2023/07/02 05:42:45;;;;;;;5.38;0.70;;;;;;;;;;5057656;28;20078;-43
2023/07/02 05:45:11;;;;;;;6.43;0.93;;;;;;;;;;5063045;28;20033;-39
2023/07/02 05:47:38;;;;;;;5.82;0.75;;;;;;;;;;5062983;28;20016;-40
2023/07/02 05:50:05;;;;;;;8.15;1.00;;;;;;;;;;5062836;28;20064;-48
2023/07/02 05:52:32;;;;;;;6.45;0.85;;;;;;;;;;5061926;28;20036;-42
2023/07/02 05:54:58;;;;;;;6.93;0.93;;;;;;;;;;5062579;28;20028;-44
2023/07/02 05:57:25;;;;;;;7.47;0.77;;;;;;;;;;5062411;28;20056;-41
2023/07/02 05:59:51;;;;;;;4.20;0.77;;;;;;;;;;5061820;28;20071;-43
2023/07/02 06:02:18;;;;;;;5.00;0.73;;;;;;;;;;5062856;28;20052;-45
2023/07/02 06:04:45;;;;;;;4.88;0.73;;;;;;;;;;5062054;28;20224;-45
2023/07/02 06:07:11;;;;;;;5.25;1.10;;;;;;;;;;5061803;28;20363;-40
2023/07/02 06:09:38;;;;;;;4.93;0.90;;;;;;;;;;5061987;28;20029;-44
2023/07/02 06:12:04;;;;;;;6.25;1.00;;;;;;;;;;5062118;28;20028;-50
2023/07/02 06:14:31;;;;;;;6.55;0.90;;;;;;;;;;5064628;28;20295;-42
2023/07/02 06:16:59;;;;;;;4.25;1.05;;;;;;;;;;5067344;28;20047;-43
2023/07/02 06:19:25;;;;;;;8.32;0.85;;;;;;;;;;5063303;28;20348;-40
2023/07/02 06:21:52;;;;;;;6.32;1.05;;;;;;;;;;5058567;28;20021;-48
2023/07/02 06:24:20;;;;;;;10.52;0.85;;;;;;;;;;5067525;28;20029;-54
2023/07/02 06:26:47;;;;;;;7.22;1.02;;;;;;;;;;5067602;28;20021;-39
2023/07/02 06:29:13;;;;;;;7.18;1.05;;;;;;;;;;5067162;28;20017;-40
2023/07/02 06:31:41;;;;;;;8.63;1.00;;;;;;;;;;5067311;28;20084;-41
2023/07/02 06:34:08;;;;;;;3.30;0.93;;;;;;;;;;5067223;28;20084;-43
2023/07/02 06:36:35;;;;;;;5.45;0.90;;;;;;;;;;5067046;28;20027;-45
2023/07/02 06:39:02;;;;;;;3.20;0.80;;;;;;;;;;5067348;28;20017;-40
2023/07/02 06:41:28;;;;;;;6.95;1.17;;;;;;;;;;5067559;28;20032;-49
2023/07/02 06:43:55;;;;;;;10.90;1.13;;;;;;;;;;5066969;28;20021;-53
2023/07/02 06:46:22;;;;;;;3.33;0.70;;;;;;;;;;5067571;28;19916;-45
2023/07/02 06:48:48;;;;;;;4.55;0.98;;;;;;;;;;5067046;28;20040;-52
2023/07/02 06:51:15;;;;;;;8.93;1.00;;;;;;;;;;5066745;28;20367;-44
2023/07/02 06:53:42;;;;;;;7.03;0.90;;;;;;;;;;5067102;28;20048;-40
2023/07/02 06:56:09;;;;;;;6.22;0.90;;;;;;;;;;5067286;28;20065;-42
2023/07/02 06:58:36;;;;;;;5.75;0.88;;;;;;;;;;5066477;28;20079;-42
2023/07/02 07:01:02;;;;;;;7.68;0.90;;;;;;;;;;5066619;28;20049;-42
2023/07/02 07:03:29;;;;;;;3.88;0.70;;;;;;;;;;5066628;28;20096;-43
2023/07/02 07:05:56;;;;;;;5.07;0.82;;;;;;;;;;5066888;28;20036;-42
2023/07/02 07:08:23;;;;;;;6.18;0.80;;;;;;;;;;5066640;28;20380;-39
2023/07/02 07:10:50;;;;;;;5.85;0.80;;;;;;;;;;5066877;28;20309;-47
2023/07/02 07:13:17;;;;;;;2.90;1.00;;;;;;;;;;5066489;28;20118;-48
2023/07/02 07:15:43;;;;;;;5.50;1.08;;;;;;;;;;5066983;28;20045;-41
2023/07/02 07:18:10;;;;;;;7.25;1.08;;;;;;;;;;5066858;28;20119;-40
2023/07/02 07:20:37;;;;;;;5.72;1.25;;;;;;;;;;5066243;28;20094;-44
2023/07/02 07:23:04;;;;;;;7.93;1.02;;;;;;;;;;5066516;28;20340;-47
2023/07/02 07:25:30;;;;;;;4.13;0.77;;;;;;;;;;5065551;28;20223;-39
2023/07/02 07:27:57;;;;;;;7.47;0.88;;;;;;;;;;5066289;28;20062;-41
2023/07/02 07:30:23;;;;;;;5.43;0.95;;;;;;;;;;5066318;28;20080;-43
2023/07/02 07:32:53;;;;;;;10.75;1.13;;;;;;;;;;5066384;28;20089;-40
2023/07/02 07:35:21;;;;;;;6.88;1.30;;;;;;;;;;5066401;28;20347;-47
2023/07/02 07:37:48;;;;;;;5.95;0.77;;;;;;;;;;5066005;28;20082;-40
2023/07/02 07:40:15;;;;;;;7.00;1.23;;;;;;;;;;5066253;28;20037;-38
2023/07/02 07:42:42;;;;;;;8.68;0.82;;;;;;;;;;5065854;28;20017;-43
2023/07/02 07:45:11;;;;;;;8.02;1.08;;;;;;;;;;5065922;28;20105;-42
2023/07/02 07:47:37;;;;;;;6.00;0.88;;;;;;;;;;5065828;28;20040;-45
2023/07/02 07:50:09;;;;;;;8.90;0.95;;;;;;;;;;5065982;28;20021;-50
2023/07/02 07:52:37;;;;;;;7.07;1.05;;;;;;;;;;5065814;28;20330;-44
2023/07/02 07:55:03;;;;;;;5.72;1.10;;;;;;;;;;5065851;28;20040;-40
2023/07/02 07:57:30;;;;;;;6.80;0.90;;;;;;;;;;5065707;28;20028;-42
2023/07/02 07:59:57;;;;;;;6.88;1.00;;;;;;;;;;5065676;28;20045;-38
2023/07/02 08:02:23;;;;;;;4.78;0.75;;;;;;;;;;5065528;28;20056;-37
2023/07/02 08:04:50;;;;;;;7.13;1.10;;;;;;;;;;5065597;28;20084;-44
2023/07/02 08:07:16;;;;;;;7.82;1.00;;;;;;;;;;5065663;28;20020;-39
2023/07/02 08:09:43;;;;;;;8.57;1.10;;;;;;;;;;5065502;28;20033;-39
2023/07/02 08:12:10;;;;;;;5.75;0.93;;;;;;;;;;5065411;28;20335;-39
2023/07/02 08:14:36;;;;;;;7.47;1.20;;;;;;;;;;5065250;28;20032;-42
2023/07/02 08:17:03;;;;;;;11.05;1.30;;;;;;;;;;5065245;28;20033;-45
2023/07/02 08:19:30;;;;;;;10.18;0.88;;;;;;;;;;5065101;28;20101;-44
2023/07/02 08:21:56;;;;;;;7.68;1.15;;;;;;;;;;5065351;28;20024;-42
2023/07/02 08:24:23;;;;;;;7.97;0.90;;;;;;;;;;5065095;28;20344;-39
2023/07/02 08:26:49;;;;;;;8.45;0.90;;;;;;;;;;5065020;28;20075;-45
2023/07/02 08:29:16;;;;;;;6.40;1.02;;;;;;;;;;5064918;28;20017;-45
2023/07/02 08:31:43;;;;;;;5.50;1.00;;;;;;;;;;5064944;28;20092;-39
2023/07/02 08:34:09;;;;;;;5.90;1.05;;;;;;;;;;5065164;28;20246;-44
2023/07/02 08:36:36;;;;;;;8.60;1.00;;;;;;;;;;5064994;28;20360;-43
2023/07/02 08:39:04;;;;;;;9.82;1.10;;;;;;;;;;5064824;28;20029;-42
2023/07/02 08:41:31;;;;;;;4.40;0.85;;;;;;;;;;5065087;28;20032;-39
2023/07/02 08:43:59;;;;;;;4.50;0.90;;;;;;;;;;5064759;28;20028;-49
2023/07/02 08:46:26;;;;;;;4.00;1.02;;;;;;;;;;5065218;28;20049;-40
2023/07/02 08:48:52;;;;;;;10.93;1.23;;;;;;;;;;5064667;28;20032;-40
2023/07/02 08:51:19;;;;;;;5.35;0.80;;;;;;;;;;5049680;28;20029;-44
2023/07/02 08:53:45;;;;;;;6.40;1.08;;;;;;;;;;5044709;28;20096;-43
2023/07/02 08:56:12;;;;;;;4.68;0.80;;;;;;;;;;5045084;28;20077;-40
2023/07/02 08:58:39;;;;;;;5.95;1.17;;;;;;;;;;5044429;28;20029;-42
2023/07/02 09:01:12;;;;;;;8.07;1.40;;;;;;;;;;5044436;28;20088;-42
2023/07/02 09:03:40;;;;;;;7.32;0.95;;;;;;;;;;5044533;28;20044;-41
2023/07/02 09:06:07;;;;;;;5.35;0.88;;;;;;;;;;5044582;28;20037;-41
2023/07/02 09:08:33;;;;;;;5.05;1.17;;;;;;;;;;5044423;28;20014;-42
2023/07/02 09:11:19;;;;;;;12.77;1.10;;;;;;;;;;5044732;28;20060;-38
2023/07/02 09:13:47;;;;;;;4.95;1.15;;;;;;;;;;5044221;28;20033;-46
2023/07/02 09:16:24;;;;;;;6.43;1.23;;;;;;;;;;5044980;28;20032;-45
2023/07/02 09:19:00;;;;;;;8.32;1.10;;;;;;;;;;5044134;28;20100;-39
2023/07/02 09:21:45;;;;;;;11.70;1.33;;;;;;;;;;5044612;28;20048;-41
2023/07/02 09:24:30;;;;;;;7.57;1.33;;;;;;;;;;5043933;28;20047;-40
2023/07/02 09:26:58;;;;;;;10.80;1.40;;;;;;;;;;5044035;28;20089;-41
2023/07/02 09:29:31;;;;;;;10.27;1.30;;;;;;;;;;5044074;28;20043;-40
2023/07/02 09:32:01;;;;;;;6.00;1.20;;;;;;;;;;5043979;28;20089;-45
2023/07/02 09:34:28;;;;;;;9.23;1.20;;;;;;;;;;5043928;28;20033;-48
2023/07/02 09:36:55;;;;;;;8.50;1.10;;;;;;;;;;5044180;28;20264;-44
2023/07/02 09:39:26;;;;;;;6.38;0.98;;;;;;;;;;5043954;28;20017;-41
2023/07/02 09:41:53;;;;;;;6.60;1.23;;;;;;;;;;5043786;28;20044;-42
2023/07/02 09:44:20;;;;;;;5.55;1.15;;;;;;;;;;5043908;28;20021;-47
2023/07/02 09:46:52;;;;;;;11.02;1.17;;;;;;;;;;5043877;28;20018;-43
2023/07/02 09:49:19;;;;;;;;;;;;;;;;;;5043618;28;20029;-44
2023/07/02 09:51:46;;;;;;;11.38;1.60;;;;;;;;;;5043905;28;19911;-44
2023/07/02 09:54:12;;;;;;;9.32;1.35;;;;;;;;;;5043785;28;20018;-45
2023/07/02 09:56:40;;;;;;;7.90;1.17;;;;;;;;;;5043591;28;20049;-47
2023/07/02 09:59:07;;;;;;;8.05;0.90;;;;;;;;;;5043867;28;20028;-47
2023/07/02 10:01:33;;;;;;;10.57;1.15;;;;;;;;;;5043541;28;20037;-46
2023/07/02 10:04:10;;;;;;;7.60;1.23;;;;;;;;;;5043591;28;20049;-42
2023/07/02 10:06:54;;;;;;;8.25;1.40;;;;;;;;;;5043879;28;20033;-48
2023/07/02 10:09:21;;;;;;;9.35;1.42;;;;;;;;;;5043526;28;20029;-40
2023/07/02 10:11:48;;;;;;;7.78;1.17;;;;;;;;;;5043605;28;20018;-42
2023/07/02 10:14:14;;;;;;;11.82;1.50;;;;;;;;;;5043795;28;20029;-41
2023/07/02 10:16:51;;;;;;;9.35;1.13;;;;;;;;;;5043471;28;20025;-43
2023/07/02 10:19:17;;;;;;;11.25;1.65;;;;;;;;;;5043482;28;20028;-44
2023/07/02 10:21:49;;;;;;;17.00;1.30;;;;;;;;;;5043433;28;20096;-41
2023/07/02 10:24:17;;;;;;;10.77;1.60;;;;;;;;;;5043497;28;20017;-39
2023/07/02 10:26:53;;;;;;;11.75;1.10;;;;;;;;;;5043481;28;20045;-40
2023/07/02 10:29:24;;;;;;;14.75;1.45;;;;;;;;;;5043303;28;20255;-49
2023/07/02 10:31:55;;;;;;;10.65;1.50;;;;;;;;;;5043356;28;20325;-46
2023/07/02 10:34:31;;;;;;;11.07;1.55;;;;;;;;;;5043340;28;20026;-40
2023/07/02 10:36:58;;;;;;;10.23;1.17;;;;;;;;;;5043621;28;20021;-40
2023/07/02 10:39:26;;;;;;;10.18;1.38;;;;;;;;;;5043300;28;20029;-40
2023/07/02 10:41:52;;;;;;;7.50;1.10;;;;;;;;;;5043469;28;20029;-41
2023/07/02 10:44:19;;;;;;;13.07;1.77;;;;;;;;;;5043383;28;20025;-39
2023/07/02 10:46:46;;;;;;;14.52;1.45;;;;;;;;;;5043330;28;20025;-40
2023/07/02 10:49:13;;;;;;;11.02;1.27;;;;;;;;;;5043091;28;20013;-40
2023/07/02 10:51:39;;;;;;;12.50;1.52;;;;;;;;;;5043364;28;20022;-40
2023/07/02 10:54:06;;;;;;;10.27;1.48;;;;;;;;;;5043323;28;20037;-43
2023/07/02 10:56:33;;;;;;;11.68;1.45;;;;;;;;;;5043016;28;20025;-38
2023/07/02 10:59:00;;;;;;;12.80;1.42;;;;;;;;;;5043348;28;20327;-41
2023/07/02 11:01:27;;;;;;;7.28;1.60;;;;;;;;;;5045055;28;20345;-42
2023/07/02 11:03:59;;;;;;;9.45;1.60;;;;;;;;;;5046544;28;20202;-40
2023/07/02 11:06:26;;;;;;;5.50;1.83;;;;;;;;;;5046646;28;20049;-40
2023/07/02 11:08:54;;;;;;;6.70;2.08;;;;;;;;;;5046582;28;20025;-41
2023/07/02 11:11:21;;;;;;;8.10;2.60;;;;;;;;;;5046837;28;20044;-39
2023/07/02 11:13:49;;;;;;;7.68;2.42;;;;;;;;;;5046741;28;20018;-39
2023/07/02 11:16:26;;;;;;;8.20;2.00;;;;;;;;;;5046892;28;20091;-40
2023/07/02 11:19:11;;;;;;;8.77;2.65;;;;;;;;;;5046370;28;20028;-39
2023/07/02 11:21:38;;;;;;;10.13;2.25;;;;;;;;;;5046362;28;20084;-39
2023/07/02 11:24:08;;;;;;;9.38;2.13;;;;;;;;;;5046112;28;20084;-39
2023/07/02 11:26:38;;;;;;;6.97;1.77;;;;;;;;;;5046204;28;20071;-41
2023/07/02 11:29:05;;;;;;;7.38;1.95;;;;;;;;;;5046167;28;20021;-49
2023/07/02 11:31:32;;;;;;;7.28;1.80;;;;;;;;;;5046150;28;20053;-41
2023/07/02 11:33:58;;;;;;;11.50;1.73;;;;;;;;;;5046152;28;20080;-40
2023/07/02 11:36:25;;;;;;;9.40;1.55;;;;;;;;;;5046509;28;20033;-43
2023/07/02 11:38:52;;;;;;;6.85;1.50;;;;;;;;;;5045983;28;20148;-41
2023/07/02 11:41:19;;;;;;;9.20;1.70;;;;;;;;;;5046541;28;20036;-41
2023/07/02 11:43:47;;;;;;;11.48;1.40;;;;;;;;;;5046226;28;20092;-38
2023/07/02 11:46:14;;;;;;;6.20;1.48;;;;;;;;;;5046369;28;20060;-40
2023/07/02 11:48:41;;;;;;;8.80;1.40;;;;;;;;;;5045743;28;20080;-39
2023/07/02 11:51:07;;;;;;;6.22;1.20;;;;;;;;;;5046276;28;20234;-41
2023/07/02 11:53:34;;;;;;;6.82;1.45;;;;;;;;;;5045749;28;20098;-40
2023/07/02 11:56:01;;;;;;;7.57;1.85;;;;;;;;;;5046071;28;20025;-48
2023/07/02 11:58:27;;;;;;;3.38;1.55;;;;;;;;;;5045739;28;20036;-40
2023/07/02 12:00:54;;;;;;;6.82;1.92;;;;;;;;;;5045412;28;20084;-41
2023/07/02 12:03:20;;;;;;;6.68;1.83;;;;;;;;;;5045650;28;20313;-40
2023/07/02 12:05:47;;;;;;;8.02;1.42;;;;;;;;;;5053632;28;20033;-43
2023/07/02 12:08:13;;;;;;;7.43;1.33;;;;;;;;;;5065370;28;20032;-43
2023/07/02 12:10:41;;;;;;;9.80;1.55;;;;;;;;;;5065699;28;20112;-44
2023/07/02 12:13:08;;;;;;;7.88;1.40;;;;;;;;;;5065956;28;20021;-43
2023/07/02 12:15:34;;;;;;;7.22;1.17;;;;;;;;;;5065572;28;20037;-43
2023/07/02 12:18:01;;;;;;;6.53;1.30;;;;;;;;;;5065345;28;20031;-44
2023/07/02 12:20:28;;;;;;;7.10;1.38;;;;;;;;;;5065582;28;20037;-48
2023/07/02 12:22:54;;;;;;;7.28;1.50;;;;;;;;;;5065051;28;20028;-45
2023/07/02 12:25:21;;;;;;;7.22;1.25;;;;;;;;;;5065289;28;20025;-46
2023/07/02 12:27:48;;;;;;;7.05;1.25;;;;;;;;;;5065074;28;20036;-45
2023/07/02 12:30:18;;;;;;;8.35;1.42;;;;;;;;;;5065117;28;20200;-45
2023/07/02 12:32:45;;;;;;;5.22;1.00;;;;;;;;;;5064472;28;20039;-44
2023/07/02 12:35:12;;;;;;;5.57;1.30;;;;;;;;;;5064793;28;20037;-46
2023/07/02 12:37:45;;;;;;;6.32;1.33;;;;;;;;;;5064764;28;20044;-46
2023/07/02 12:40:12;;;;;;;5.50;1.50;;;;;;;;;;5064999;28;20033;-48
2023/07/02 12:42:39;;;;;;;7.88;2.15;;;;;;;;;;5064673;28;20035;-48
2023/07/02 12:45:06;;;;;;;8.10;2.33;;;;;;;;;;5064661;28;20194;-47
2023/07/02 12:47:33;;;;;;;4.60;1.92;;;;;;;;;;5064658;28;20032;-45
2023/07/02 12:49:59;;;;;;;5.85;1.65;;;;;;;;;;5064885;28;20037;-47
2023/07/02 12:52:27;;;;;;;5.45;1.60;;;;;;;;;;5064498;28;20020;-44
2023/07/02 12:54:54;;;;;;;4.60;1.65;;;;;;;;;;5064756;28;20070;-47
2023/07/02 12:57:21;;;;;;;5.47;1.30;;;;;;;;;;5064529;28;20032;-45
2023/07/02 12:59:47;;;;;;;5.32;1.58;;;;;;;;;;5064186;28;20363;-46
2023/07/02 13:02:14;;;;;;;7.57;1.40;;;;;;;;;;5064788;28;20053;-46
2023/07/02 13:04:40;;;;;;;4.65;1.13;;;;;;;;;;5064419;28;20037;-46
2023/07/02 13:07:07;;;;;;;4.43;1.00;;;;;;;;;;5064213;28;20017;-46
2023/07/02 13:09:34;;;;;;;3.97;1.00;;;;;;;;;;5064332;28;20025;-43
2023/07/02 13:12:00;;;;;;;3.67;1.02;;;;;;;;;;5064242;28;20280;-44
2023/07/02 13:14:27;;;;;;;5.10;1.10;;;;;;;;;;5064125;28;20075;-45
2023/07/02 13:16:54;;;;;;;3.97;0.90;;;;;;;;;;5064170;28;20029;-44
2023/07/02 13:19:20;;;;;;;4.07;1.00;;;;;;;;;;5064106;28;20037;-46
2023/07/02 13:21:47;;;;;;;9.65;1.10;;;;;;;;;;5063996;28;20084;-47
2023/07/02 13:24:13;;;;;;;4.93;1.30;;;;;;;;;;5063202;28;20032;-46
2023/07/02 13:26:40;;;;;;;5.40;1.30;;;;;;;;;;5064062;28;20033;-46
2023/07/02 13:29:07;;;;;;;8.80;1.30;;;;;;;;;;5063816;28;20068;-42
2023/07/02 13:31:33;;;;;;;6.38;1.23;;;;;;;;;;5063984;28;20021;-48
2023/07/02 13:34:00;;;;;;;4.65;1.38;;;;;;;;;;5064051;28;20043;-44
2023/07/02 13:36:28;;;;;;;7.40;1.38;;;;;;;;;;5064287;28;20051;-46
2023/07/02 13:38:55;;;;;;;3.00;1.05;;;;;;;;;;5063859;28;20029;-41
2023/07/02 13:41:22;;;;;;;5.70;1.27;;;;;;;;;;5064345;28;20217;-48
2023/07/02 13:43:48;;;;;;;3.75;1.00;;;;;;;;;;5063704;28;20025;-50
2023/07/02 13:46:15;;;;;;;4.50;1.00;;;;;;;;;;5064229;28;20045;-45
2023/07/02 13:48:41;;;;;;;4.85;0.98;;;;;;;;;;5063808;28;20132;-46
2023/07/02 13:51:08;;;;;;;2.50;1.00;;;;;;;;;;5064152;28;20021;-41
2023/07/02 13:53:35;;;;;;;4.50;1.10;;;;;;;;;;5063633;28;20048;-42
2023/07/02 13:56:02;;;;;;;4.85;1.20;;;;;;;;;;5064019;28;20033;-42
2023/07/02 13:58:47;;;;;;;2.25;0.80;;;;;;;;;;5063793;28;20025;-44
2023/07/02 14:01:14;;;;;;;10.95;1.50;;;;;;;;;;5063295;28;20057;-42
2023/07/02 14:03:40;;;;;;;12.45;1.92;;;;;;;;;;5055229;28;20041;-42
2023/07/02 14:06:07;;;;;;;6.30;1.40;;;;;;;;;;5066809;28;20052;-42
2023/07/02 14:08:33;;;;;;;7.88;1.50;;;;;;;;;;5061162;28;20029;-41
2023/07/02 14:11:00;;;;;;;2.67;1.25;;;;;;;;;;5057836;28;20055;-44
2023/07/02 14:13:26;;;;;;;6.25;1.48;;;;;;;;;;5048640;28;20074;-42
2023/07/02 14:15:53;;;;;;;4.10;1.50;;;;;;;;;;5044178;28;20309;-41
2023/07/02 14:18:19;;;;;;;2.22;1.20;;;;;;;;;;5043709;28;20218;-46
2023/07/02 14:20:46;;;;;;;3.65;0.90;;;;;;;;;;5043729;28;20285;-44
2023/07/02 14:23:13;;;;;;;4.60;1.42;;;;;;;;;;5060506;28;20098;-48
2023/07/02 14:25:39;;;;;;;3.85;1.27;;;;;;;;;;5063683;28;20078;-45
2023/07/02 14:28:06;;;;;;;2.17;1.30;;;;;;;;;;5062846;28;20013;-43
2023/07/02 14:30:34;;;;;;;2.20;1.33;;;;;;;;;;5062836;28;20036;-43
2023/07/02 14:33:00;;;;;;;4.03;1.20;;;;;;;;;;5063422;28;20017;-42
2023/07/02 14:35:29;;;;;;;6.38;1.65;;;;;;;;;;5065675;28;20020;-46
2023/07/02 14:37:56;;;;;;;4.10;1.42;;;;;;;;;;5067393;28;20021;-42
2023/07/02 14:40:22;;;;;;;3.08;1.58;;;;;;;;;;5067082;28;20086;-46
2023/07/02 14:42:49;;;;;;;4.93;1.45;;;;;;;;;;5066948;28;20047;-43
2023/07/02 14:45:16;;;;;;;3.67;1.33;;;;;;;;;;5067267;28;20037;-43